This is the latest recevied weather packets stored in our database for station/object HB9HJL-11. If no packets are shown the sender has not sent any weather packets the latest 10 day(s).
| Time | Temp. | Humidity | Pressure | Rain* | Wind** | Luminosity | Snow |
|---|---|---|---|---|---|---|---|
| 1777206721 | 20.56° C | 25% | 918 hPa | - | - | - | - |
| 1777205821 | 22.22° C | 27% | 924 hPa | - | - | - | - |
| 1777204921 | 21.67° C | 26% | 922 hPa | - | - | - | - |
| 1777204021 | 19.44° C | 27% | 918 hPa | - | - | - | - |
| 1777203121 | 20.56° C | 27% | 921 hPa | - | - | - | - |
| 1777202221 | 20.56° C | 28% | 924 hPa | - | - | - | - |
| 1777201321 | 20.56° C | 27% | 922 hPa | - | - | - | - |
| 1777200420 | 21.67° C | 28% | 924 hPa | - | - | - | - |
| 1777199520 | 20.56° C | 27% | 922 hPa | - | - | - | - |
| 1777198620 | 21.11° C | 28% | 924 hPa | - | - | - | - |
| 1777197720 | 21.67° C | 28% | 926 hPa | - | - | - | - |
| 1777196820 | 20° C | 29% | 924 hPa | - | - | - | - |
| 1777195920 | 20° C | 29% | 925 hPa | - | - | - | - |
| 1777195020 | 18.89° C | 30% | 924 hPa | - | - | - | - |
| 1777194120 | 18.33° C | 29% | 920 hPa | - | - | - | - |
| 1777193220 | 17.22° C | 30% | 921 hPa | - | - | - | - |
| 1777192320 | 16.67° C | 30% | 919 hPa | - | - | - | - |
| 1777191420 | 17.22° C | 33% | 924 hPa | - | - | - | - |
| 1777190519 | 16.67° C | 38% | 931 hPa | - | - | - | - |
| 1777189619 | 15° C | 40% | 932 hPa | - | - | - | - |
| 1777188719 | 13.89° C | 44% | 936 hPa | - | - | - | - |
| 1777187819 | 12.78° C | 47% | 939 hPa | - | - | - | - |
| 1777186919 | 11.11° C | 50% | 941 hPa | - | - | - | - |
| 1777186019 | 10° C | 53% | 942 hPa | - | - | - | - |
| 1777185119 | 8.33° C | 56% | 943 hPa | - | - | - | - |
* Rain since midnight (hover to see other rain measurements)
** Current wind speed in m/s (hover to see current wind gust speed)